Time;durP1;ratioP1;P1;durP2;ratioP2;P2;SDS_P1;SDS_P2;PMS_P1;PMS_P2;Temp;Humidity;BMP_temperature;BMP_pressure;BME280_temperature;BME280_humidity;BME280_pressure;Samples;Min_cycle;Max_cycle;Signal;HPM_P1;HPM_P2
2021/03/16 00:09:32;;;;;;;0.20;0.10;;;9.80;99.90;;;;;;20462141;28;20209;-73
2021/03/16 00:19:35;;;;;;;0.30;0.20;;;9.50;99.90;;;;;;20483809;28;20333;-73
2021/03/16 00:29:39;;;;;;;0.30;0.30;;;9.70;99.90;;;;;;20540023;28;20502;-73
2021/03/16 00:39:43;;;;;;;0.20;0.10;;;9.50;99.90;;;;;;20538717;28;20224;-74
2021/03/16 00:49:48;;;;;;;0.20;0.10;;;9.90;99.90;;;;;;20539332;28;20483;-74
2021/03/16 00:59:51;;;;;;;0.20;0.07;;;9.60;99.90;;;;;;20535931;28;20220;-72
2021/03/16 01:10:11;;;;;;;0.40;0.40;;;9.50;99.90;;;;;;20535580;28;20208;-73
2021/03/16 01:20:16;;;;;;;0.20;0.10;;;9.70;99.90;;;;;;20537348;28;20228;-74
2021/03/16 01:30:21;;;;;;;0.20;0.10;;;9.60;99.90;;;;;;20550905;28;20207;-74
2021/03/16 01:40:31;;;;;;;0.20;0.10;;;9.40;99.90;;;;;;20535031;28;20223;-73
2021/03/16 01:50:36;;;;;;;0.20;0.10;;;9.50;99.90;;;;;;20535153;28;20239;-73
2021/03/16 02:00:41;;;;;;;0.20;0.10;;;9.70;99.90;;;;;;20534482;28;20223;-73
2021/03/16 02:10:52;;;;;;;0.60;0.30;;;9.60;99.90;;;;;;20535344;28;21030;-73
2021/03/16 02:21:14;;;;;;;2.40;0.73;;;9.60;99.90;;;;;;20548214;28;20227;-73
2021/03/16 02:31:19;;;;;;;0.30;0.30;;;9.40;99.90;;;;;;20534711;28;20307;-72
2021/03/16 02:41:23;;;;;;;0.20;0.10;;;9.30;99.90;;;;;;20531464;28;20318;-75
2021/03/16 02:51:27;;;;;;;0.20;0.10;;;9.10;99.90;;;;;;20533280;28;20323;-74
2021/03/16 03:01:31;;;;;;;0.20;0.10;;;9.00;99.90;;;;;;20542387;23;20598;-75
2021/03/16 03:11:38;;;;;;;0.20;0.10;;;9.00;99.90;;;;;;20528811;28;20208;-75
2021/03/16 03:21:46;;;;;;;0.20;0.10;;;8.70;99.90;;;;;;20526786;28;20571;-75
2021/03/16 03:31:51;;;;;;;0.20;0.10;;;8.90;99.90;;;;;;20528158;28;20203;-76
2021/03/16 03:41:55;;;;;;;0.77;0.77;;;8.60;99.90;;;;;;20528060;28;20376;-76
2021/03/16 03:51:59;;;;;;;0.20;0.20;;;8.50;99.90;;;;;;20541643;28;20203;-75
2021/03/16 04:02:03;;;;;;;0.20;0.10;;;8.50;99.90;;;;;;20529157;28;20863;-74
2021/03/16 04:12:09;;;;;;;0.20;0.10;;;8.70;99.90;;;;;;20535906;28;20657;-77
2021/03/16 04:22:12;;;;;;;0.30;0.30;;;8.70;99.90;;;;;;20540687;28;20244;-76
2021/03/16 04:32:15;;;;;;;0.20;0.10;;;9.00;99.90;;;;;;20538434;28;20200;-77
2021/03/16 04:42:18;;;;;;;0.30;0.30;;;8.80;99.90;;;;;;20543418;28;20235;-75
2021/03/16 04:52:22;;;;;;;0.20;0.10;;;8.90;99.90;;;;;;20540190;28;20283;-74
2021/03/16 05:02:25;;;;;;;0.20;0.17;;;9.10;99.90;;;;;;20559474;23;20591;-71
2021/03/16 05:12:29;;;;;;;0.20;0.10;;;8.80;99.90;;;;;;20540918;28;20192;-69
2021/03/16 05:22:33;;;;;;;0.20;0.10;;;8.90;99.90;;;;;;20537247;28;20649;-70
2021/03/16 05:32:38;;;;;;;1.00;0.93;;;8.70;99.90;;;;;;20535904;28;20196;-71
2021/03/16 05:42:41;;;;;;;0.50;0.40;;;8.80;99.90;;;;;;20534828;28;20240;-71
2021/03/16 05:52:45;;;;;;;1.03;0.63;;;8.80;99.90;;;;;;20535092;28;20193;-70
2021/03/16 06:02:49;;;;;;;0.20;0.10;;;9.00;99.90;;;;;;20533927;28;20509;-71
2021/03/16 06:12:52;;;;;;;0.73;0.73;;;9.10;99.90;;;;;;20532537;28;20287;-70
2021/03/16 06:23:09;;;;;;;0.87;0.83;;;9.20;99.90;;;;;;20532915;28;20224;-70
2021/03/16 06:33:18;;;;;;;0.30;0.30;;;9.10;99.90;;;;;;20531831;28;20720;-70
2021/03/16 06:43:24;;;;;;;0.20;0.10;;;9.30;99.90;;;;;;20527033;28;20600;-71
2021/03/16 06:53:28;;;;;;;0.73;0.30;;;9.70;99.90;;;;;;20528360;28;20273;-71
2021/03/16 07:03:50;;;;;;;0.63;0.33;;;9.90;99.90;;;;;;20526041;28;20279;-71
2021/03/16 07:13:55;;;;;;;1.17;1.07;;;10.20;99.90;;;;;;20523454;28;20232;-71
2021/03/16 07:24:01;;;;;;;0.73;0.50;;;10.60;99.90;;;;;;20466759;28;20232;-70
2021/03/16 07:34:05;;;;;;;0.30;0.30;;;11.30;99.90;;;;;;20447227;28;20965;-72
2021/03/16 07:44:10;;;;;;;0.43;0.23;;;11.60;99.90;;;;;;20502754;28;20223;-70
2021/03/16 07:54:13;;;;;;;0.53;0.53;;;12.10;99.90;;;;;;20533115;28;20513;-72
2021/03/16 08:04:16;;;;;;;0.87;0.33;;;12.70;99.90;;;;;;20538998;28;20240;-70
2021/03/16 08:14:31;;;;;;;0.77;0.77;;;13.30;99.90;;;;;;20541515;28;20204;-71
2021/03/16 08:24:38;;;;;;;3.60;1.20;;;13.20;99.90;;;;;;20538373;28;20664;-72
2021/03/16 08:34:43;;;;;;;0.37;0.37;;;13.30;99.90;;;;;;20529536;28;20207;-71
2021/03/16 08:44:46;;;;;;;0.80;0.63;;;13.20;99.90;;;;;;20525584;28;20238;-71
2021/03/16 08:54:51;;;;;;;0.83;0.33;;;13.50;99.90;;;;;;20517201;28;20688;-69
2021/03/16 09:04:54;;;;;;;0.37;0.37;;;14.40;99.90;;;;;;20520341;28;20386;-72
2021/03/16 09:15:07;;;;;;;0.80;0.50;;;14.70;99.90;;;;;;20530638;28;20200;-70
2021/03/16 09:25:10;;;;;;;5.93;1.67;;;14.40;99.90;;;;;;20534989;28;20235;-70
2021/03/16 09:35:19;;;;;;;0.53;0.47;;;14.40;99.90;;;;;;20535489;28;20273;-74
2021/03/16 09:45:24;;;;;;;0.20;0.10;;;14.50;99.90;;;;;;20533579;28;20232;-72
2021/03/16 09:55:28;;;;;;;0.20;0.00;;;14.70;99.90;;;;;;20533983;28;20211;-71
2021/03/16 10:05:34;;;;;;;1.13;0.63;;;15.00;99.90;;;;;;20530830;28;20564;-72
2021/03/16 10:15:40;;;;;;;0.73;0.57;;;15.10;99.90;;;;;;20529444;28;20200;-70
2021/03/16 10:25:43;;;;;;;0.20;0.10;;;15.30;99.90;;;;;;20520772;28;20696;-71
2021/03/16 10:35:53;;;;;;;0.43;0.43;;;15.30;99.90;;;;;;20528298;28;20542;-70
2021/03/16 10:45:56;;;;;;;5.90;0.53;;;15.40;99.90;;;;;;20528827;28;20250;-71
2021/03/16 10:56:01;;;;;;;0.47;0.47;;;16.00;99.90;;;;;;20527687;28;20478;-72
2021/03/16 11:06:05;;;;;;;0.20;0.10;;;16.80;99.90;;;;;;20529367;28;20892;-70
2021/03/16 11:16:09;;;;;;;0.20;0.20;;;17.40;99.90;;;;;;20530006;28;20276;-69
2021/03/16 11:26:12;;;;;;;1.10;0.27;;;18.10;99.90;;;;;;20535844;28;20527;-69
2021/03/16 11:36:18;;;;;;;1.63;0.40;;;18.80;99.90;;;;;;20489767;28;20550;-69
2021/03/16 11:46:20;;;;;;;2.30;1.07;;;19.00;99.90;;;;;;20490629;28;20731;-71
2021/03/16 11:56:24;;;;;;;0.30;0.30;;;19.30;99.90;;;;;;20537123;28;20200;-70
2021/03/16 12:06:27;;;;;;;9.97;0.50;;;19.80;99.90;;;;;;20540189;28;20242;-70
2021/03/16 12:16:31;;;;;;;0.30;0.20;;;20.50;99.90;;;;;;20541122;28;20200;-68
2021/03/16 12:26:35;;;;;;;0.30;0.30;;;19.90;99.90;;;;;;20533539;28;20224;-69
2021/03/16 12:36:39;;;;;;;0.20;0.13;;;20.20;99.90;;;;;;20538505;28;20242;-66
2021/03/16 12:46:41;;;;;;;0.43;0.43;;;20.50;99.90;;;;;;20536586;28;20494;-70
2021/03/16 12:56:49;;;;;;;0.20;0.10;;;20.50;99.90;;;;;;20533750;28;20346;-69
2021/03/16 13:06:51;;;;;;;1.13;0.70;;;20.90;99.90;;;;;;20534552;28;20605;-71
2021/03/16 13:16:55;;;;;;;0.20;0.20;;;21.40;99.90;;;;;;20531375;28;20219;-68
2021/03/16 13:26:58;;;;;;;0.20;0.10;;;21.50;99.90;;;;;;20529389;28;20686;-70
2021/03/16 13:37:05;;;;;;;2.43;0.50;;;22.00;99.90;;;;;;20527794;28;20628;-69
2021/03/16 13:47:08;;;;;;;0.20;0.20;;;22.30;99.90;;;;;;20529478;28;20557;-69
2021/03/16 13:57:12;;;;;;;2.57;0.93;;;22.60;99.90;;;;;;20528089;28;20275;-67
2021/03/16 14:07:15;;;;;;;0.57;0.47;;;22.80;99.90;;;;;;20529590;28;20247;-68
2021/03/16 14:17:19;;;;;;;0.20;0.10;;;23.20;99.90;;;;;;20525011;28;20294;-68
2021/03/16 14:27:22;;;;;;;0.30;0.13;;;23.60;99.90;;;;;;20528975;28;20433;-70
2021/03/16 14:37:25;;;;;;;5.83;0.43;;;23.40;99.90;;;;;;20526089;28;20192;-69
2021/03/16 14:47:27;;;;;;;1.80;0.47;;;23.20;99.90;;;;;;20535022;28;20399;-69
2021/03/16 14:57:32;;;;;;;2.27;1.00;;;22.80;99.90;;;;;;20518997;28;20797;-70
2021/03/16 15:07:36;;;;;;;0.63;0.63;;;22.90;99.90;;;;;;20523663;28;20243;-70
2021/03/16 15:17:42;;;;;;;0.43;0.37;;;23.00;99.90;;;;;;20524958;28;20215;-70
2021/03/16 15:27:56;;;;;;;0.20;0.10;;;23.00;99.90;;;;;;20524737;28;20278;-69
2021/03/16 15:37:59;;;;;;;1.23;0.53;;;22.50;99.90;;;;;;20525936;28;20231;-69
2021/03/16 15:48:02;;;;;;;0.50;0.30;;;21.40;99.90;;;;;;20525894;28;20557;-69
2021/03/16 15:58:06;;;;;;;0.30;0.20;;;21.80;99.90;;;;;;20524709;28;20227;-70
2021/03/16 16:08:10;;;;;;;1.40;0.87;;;21.70;99.90;;;;;;20500164;28;20694;-68
2021/03/16 16:18:18;;;;;;;0.20;0.17;;;20.70;99.90;;;;;;20484493;28;20469;-69
2021/03/16 16:28:24;;;;;;;1.93;0.77;;;19.20;99.90;;;;;;20548449;28;20200;-69
2021/03/16 16:38:29;;;;;;;0.20;0.20;;;18.10;99.90;;;;;;20533142;28;20623;-68
2021/03/16 16:48:31;;;;;;;2.83;0.37;;;17.50;99.90;;;;;;20533534;28;20291;-71
2021/03/16 16:58:35;;;;;;;0.33;0.30;;;17.20;99.90;;;;;;20537318;28;20224;-70
2021/03/16 17:08:38;;;;;;;1.17;0.50;;;16.30;99.90;;;;;;20532692;28;20677;-69
2021/03/16 17:18:41;;;;;;;0.20;0.20;;;16.30;99.90;;;;;;20507248;28;20389;-71
2021/03/16 17:28:44;;;;;;;1.40;0.43;;;15.70;99.90;;;;;;20454161;29;20208;-68
2021/03/16 17:38:47;;;;;;;0.30;0.30;;;15.40;99.90;;;;;;20513578;28;20418;-70
2021/03/16 17:48:50;;;;;;;0.30;0.20;;;15.30;99.90;;;;;;20530833;28;20196;-70
2021/03/16 17:58:55;;;;;;;2.30;1.13;;;15.00;99.90;;;;;;20530468;28;20220;-69
2021/03/16 18:08:59;;;;;;;7.43;0.90;;;14.70;99.90;;;;;;20532924;28;20635;-70
2021/03/16 18:19:03;;;;;;;1.70;1.13;;;14.70;99.90;;;;;;20529099;28;20227;-71
2021/03/16 18:29:06;;;;;;;0.20;0.10;;;14.50;99.90;;;;;;20526360;28;20242;-70
2021/03/16 18:39:09;;;;;;;6.60;0.77;;;14.20;99.90;;;;;;20509259;28;20564;-69
2021/03/16 18:49:12;;;;;;;2.20;1.13;;;13.90;99.90;;;;;;20515164;28;20194;-70
2021/03/16 18:59:15;;;;;;;1.10;1.00;;;13.50;99.90;;;;;;20507555;28;20625;-70
2021/03/16 19:09:18;;;;;;;0.77;0.53;;;13.00;99.90;;;;;;20521935;28;20240;-70
2021/03/16 19:19:21;;;;;;;1.00;0.43;;;12.80;99.90;;;;;;20469782;28;20384;-70
2021/03/16 19:29:24;;;;;;;2.20;1.10;;;12.50;99.90;;;;;;20525537;28;20204;-69
2021/03/16 19:39:28;;;;;;;1.43;0.80;;;12.40;99.90;;;;;;20528286;28;20220;-71
2021/03/16 19:49:30;;;;;;;0.40;0.40;;;12.10;99.90;;;;;;20553538;28;20196;-69
2021/03/16 19:59:34;;;;;;;0.90;0.90;;;12.00;99.90;;;;;;20538668;28;20617;-71
2021/03/16 20:09:36;;;;;;;0.50;0.50;;;12.10;99.90;;;;;;20534698;28;20232;-70
2021/03/16 20:19:43;;;;;;;0.60;0.30;;;12.00;99.90;;;;;;20519253;28;20274;-70
2021/03/16 20:29:47;;;;;;;3.53;1.90;;;11.70;99.90;;;;;;20532618;28;20196;-69
2021/03/16 20:39:51;;;;;;;0.20;0.20;;;11.60;99.90;;;;;;20536751;28;20235;-70
2021/03/16 20:49:55;;;;;;;0.47;0.47;;;11.50;99.90;;;;;;20535665;28;20666;-70
2021/03/16 20:59:59;;;;;;;2.60;0.80;;;11.50;99.90;;;;;;20537088;28;20555;-70
2021/03/16 21:10:03;;;;;;;1.10;0.90;;;11.30;99.90;;;;;;20535370;28;20203;-69
2021/03/16 21:20:10;;;;;;;5.63;1.00;;;11.30;99.90;;;;;;20510162;28;20219;-70
2021/03/16 21:30:17;;;;;;;0.70;0.70;;;11.40;99.90;;;;;;20535280;28;20355;-70
2021/03/16 21:40:23;;;;;;;0.27;0.27;;;11.10;99.90;;;;;;20532221;28;20227;-70
2021/03/16 21:50:26;;;;;;;0.30;0.30;;;10.90;99.90;;;;;;20535376;28;20849;-70
2021/03/16 22:00:30;;;;;;;0.87;0.33;;;10.70;99.90;;;;;;20531580;28;20236;-70
2021/03/16 22:10:32;;;;;;;4.63;1.47;;;10.70;99.90;;;;;;20531904;28;20641;-71
2021/03/16 22:20:36;;;;;;;2.30;0.70;;;10.90;99.90;;;;;;20531032;28;20278;-71
2021/03/16 22:30:38;;;;;;;1.23;0.90;;;10.90;99.90;;;;;;20527311;28;20188;-70
2021/03/16 22:40:42;;;;;;;0.30;0.30;;;10.70;99.90;;;;;;20528998;28;20223;-69
2021/03/16 22:50:47;;;;;;;2.27;1.37;;;10.90;99.90;;;;;;20514363;28;20250;-70
2021/03/16 23:00:51;;;;;;;0.53;0.47;;;10.90;99.90;;;;;;20449800;28;20280;-70
2021/03/16 23:10:53;;;;;;;0.37;0.27;;;10.50;99.90;;;;;;20453060;28;20192;-70
2021/03/16 23:21:00;;;;;;;0.63;0.63;;;10.40;99.90;;;;;;20530682;28;20212;-70
2021/03/16 23:31:05;;;;;;;0.67;0.67;;;10.10;99.90;;;;;;20540466;28;20459;-70
2021/03/16 23:41:10;;;;;;;0.20;0.10;;;10.10;99.90;;;;;;20537896;28;20711;-70
2021/03/16 23:51:15;;;;;;;0.83;0.83;;;10.10;99.90;;;;;;20545679;28;20460;-71
